Time;durP1;ratioP1;P1;durP2;ratioP2;P2;SDS_P1;SDS_P2;PMS_P1;PMS_P2;Temp;Humidity;BMP_temperature;BMP_pressure;BME280_temperature;BME280_humidity;BME280_pressure;Samples;Min_cycle;Max_cycle;Signal;HPM_P1;HPM_P2
2023/08/26 00:01:59;;;;;;;21.83;13.10;;;;;;;22.91;100.00;97372.78;5028456;28;20025;-74
2023/08/26 00:04:24;;;;;;;21.08;12.55;;;;;;;22.98;100.00;97383.84;5028253;28;20436;-73
2023/08/26 00:06:50;;;;;;;18.42;13.43;;;;;;;22.94;100.00;97386.06;5028623;28;20025;-74
2023/08/26 00:09:16;;;;;;;21.10;13.43;;;;;;;22.89;100.00;97387.59;5028298;28;20033;-73
2023/08/26 00:11:41;;;;;;;17.75;12.90;;;;;;;22.85;100.00;97383.53;5028333;28;20025;-73
2023/08/26 00:14:07;;;;;;;23.80;14.35;;;;;;;22.88;100.00;97378.59;5028347;28;20120;-74
2023/08/26 00:16:33;;;;;;;19.17;13.07;;;;;;;22.86;100.00;97369.69;5028354;28;20045;-73
2023/08/26 00:19:01;;;;;;;41.78;13.00;;;;;;;22.91;100.00;97369.19;5029469;28;20052;-72
2023/08/26 00:21:27;;;;;;;24.95;13.27;;;;;;;22.96;100.00;97367.63;5027999;28;20033;-73
2023/08/26 00:23:52;;;;;;;22.85;14.25;;;;;;;22.90;100.00;97371.06;5028301;28;20400;-73
2023/08/26 00:26:18;;;;;;;18.13;12.68;;;;;;;22.73;100.00;97369.44;5028004;28;20090;-73
2023/08/26 00:28:44;;;;;;;21.13;13.18;;;;;;;22.63;100.00;97366.00;5028179;28;20033;-73
2023/08/26 00:31:10;;;;;;;17.98;12.05;;;;;;;22.59;100.00;97370.94;5027849;28;20072;-72
2023/08/26 00:33:35;;;;;;;20.50;12.60;;;;;;;22.61;100.00;97359.88;5028168;28;20026;-73
2023/08/26 00:36:01;;;;;;;17.08;12.20;;;;;;;22.49;100.00;97367.56;5028156;28;20047;-73
2023/08/26 00:38:29;;;;;;;18.52;13.10;;;;;;;22.48;100.00;97365.00;5027925;28;20424;-73
2023/08/26 00:40:55;;;;;;;21.30;13.48;;;;;;;22.44;100.00;97364.50;5027988;28;20094;-73
2023/08/26 00:43:21;;;;;;;20.30;13.20;;;;;;;22.34;100.00;97371.16;5027830;28;20033;-73
2023/08/26 00:45:47;;;;;;;18.23;13.18;;;;;;;22.33;100.00;97372.19;5027778;28;20029;-73
2023/08/26 00:48:13;;;;;;;18.50;13.45;;;;;;;22.41;100.00;97359.41;5027532;28;20036;-74
2023/08/26 00:50:40;;;;;;;18.15;12.60;;;;;;;22.37;100.00;97365.34;5027763;28;20025;-73
2023/08/26 00:53:10;;;;;;;23.02;12.32;;;;;;;22.40;100.00;97367.75;5027852;28;20524;-73
2023/08/26 00:55:36;;;;;;;18.30;12.60;;;;;;;22.36;100.00;97372.72;5027581;28;20028;-74
2023/08/26 00:58:02;;;;;;;20.23;13.05;;;;;;;22.39;100.00;97360.59;5011413;28;20389;-73
2023/08/26 01:00:29;;;;;;;17.38;12.77;;;;;;;22.30;100.00;97364.38;5028051;28;20033;-74
2023/08/26 01:02:54;;;;;;;22.95;12.77;;;;;;;22.26;100.00;97368.44;5030142;28;20040;-72
2023/08/26 01:05:20;;;;;;;22.30;13.18;;;;;;;22.31;100.00;97368.78;5047571;28;20033;-72
2023/08/26 01:07:46;;;;;;;19.10;12.27;;;;;;;22.30;100.00;97362.50;5047311;28;20514;-73
2023/08/26 01:10:11;;;;;;;18.60;13.07;;;;;;;22.31;100.00;97374.22;5030966;28;20128;-73
2023/08/26 01:12:57;;;;;;;22.40;13.27;;;;;;;22.36;100.00;97370.00;5047583;28;20033;-74
2023/08/26 01:15:24;;;;;;;26.40;14.07;;;;;;;22.28;100.00;97369.13;5046688;28;20041;-74
2023/08/26 01:17:50;;;;;;;20.00;13.48;;;;;;;22.27;100.00;97371.00;5047291;28;20029;-74
2023/08/26 01:20:15;;;;;;;19.98;13.52;;;;;;;22.28;100.00;97369.13;5047271;28;20027;-73
2023/08/26 01:22:42;;;;;;;21.63;13.75;;;;;;;22.25;100.00;97364.88;5048396;28;20051;-73
2023/08/26 01:25:08;;;;;;;118.70;68.20;;;;;;;22.27;100.00;97373.72;5047193;28;20025;-73
2023/08/26 01:27:33;;;;;;;22.92;14.05;;;;;;;22.26;100.00;97372.03;5048309;28;20125;-73
2023/08/26 01:29:59;;;;;;;22.20;13.23;;;;;;;22.15;100.00;97373.22;5046746;28;20062;-73
2023/08/26 01:32:49;;;;;;;21.63;13.65;;;;;;;22.17;100.00;97372.22;5047010;28;20041;-72
2023/08/26 01:35:22;;;;;;;20.65;13.88;;;;;;;22.03;100.00;97376.47;5046966;28;20033;-74
2023/08/26 01:37:49;;;;;;;21.05;13.98;;;;;;;21.85;100.00;97367.56;5021417;28;20408;-74
2023/08/26 01:40:15;;;;;;;21.67;14.23;;;;;;;21.73;100.00;97372.50;5027090;28;20374;-73
2023/08/26 01:42:41;;;;;;;23.75;14.32;;;;;;;21.55;100.00;97374.53;5027212;28;20033;-73
2023/08/26 01:45:07;;;;;;;21.15;14.70;;;;;;;21.46;100.00;97378.25;5026947;28;20480;-73
2023/08/26 01:47:32;;;;;;;23.20;14.02;;;;;;;21.35;100.00;97371.22;5010511;28;20090;-73
2023/08/26 01:49:58;;;;;;;23.98;14.25;;;;;;;21.30;100.00;97362.72;5028066;28;20037;-73
2023/08/26 01:52:23;;;;;;;21.85;13.88;;;;;;;21.25;100.00;97364.25;5041768;28;20025;-72
2023/08/26 01:54:49;;;;;;;26.15;14.05;;;;;;;21.23;100.00;97371.69;5046572;28;20033;-73
2023/08/26 01:57:17;;;;;;;22.65;14.07;;;;;;;21.27;100.00;97363.06;5046837;28;20438;-73
2023/08/26 01:59:43;;;;;;;23.35;15.05;;;;;;;21.22;100.00;97362.72;5046904;28;20037;-73
2023/08/26 02:02:09;;;;;;;23.13;14.65;;;;;;;21.11;100.00;97363.00;5047703;28;20108;-73
2023/08/26 02:04:37;;;;;;;22.67;14.52;;;;;;;21.19;100.00;97367.63;5047989;28;20032;-73
2023/08/26 02:07:02;;;;;;;23.08;14.27;;;;;;;21.28;100.00;97367.50;5046768;28;20533;-73
2023/08/26 02:09:28;;;;;;;21.40;14.10;;;;;;;21.28;100.00;97363.91;5029652;28;20032;-73
2023/08/26 02:11:53;;;;;;;26.73;14.63;;;;;;;21.37;100.00;97369.22;5030031;28;20041;-73
2023/08/26 02:14:19;;;;;;;21.15;14.20;;;;;;;21.39;100.00;97364.44;5047641;28;20032;-73
2023/08/26 02:16:44;;;;;;;20.42;14.10;;;;;;;21.43;100.00;97359.53;5046563;28;20039;-74
2023/08/26 02:19:10;;;;;;;20.65;13.93;;;;;;;21.39;100.00;97363.59;5029779;28;20097;-73
2023/08/26 02:21:35;;;;;;;19.45;13.98;;;;;;;21.41;100.00;97359.69;5047765;28;20029;-73
2023/08/26 02:24:01;;;;;;;31.25;14.88;;;;;;;21.43;100.00;97356.81;5046139;28;20506;-73
2023/08/26 02:26:27;;;;;;;23.55;14.05;;;;;;;21.36;100.00;97362.06;5046101;28;20036;-74
2023/08/26 02:28:52;;;;;;;31.65;14.95;;;;;;;21.33;100.00;97364.25;5046124;28;20476;-74
2023/08/26 02:31:18;;;;;;;18.88;13.65;;;;;;;21.34;100.00;97353.22;5046196;28;20328;-74
2023/08/26 02:33:43;;;;;;;20.63;13.15;;;;;;;21.29;100.00;97352.00;5046467;28;20024;-74
2023/08/26 02:36:10;;;;;;;22.45;13.40;;;;;;;21.21;100.00;97347.41;5046202;28;20472;-74
2023/08/26 02:38:36;;;;;;;23.38;13.73;;;;;;;21.14;100.00;97350.94;5045922;28;20033;-73
2023/08/26 02:41:02;;;;;;;16.70;12.75;;;;;;;21.14;100.00;97351.78;5029509;28;20039;-72
2023/08/26 02:43:27;;;;;;;19.83;13.20;;;;;;;21.06;100.00;97355.31;5046093;28;20029;-72
2023/08/26 02:45:53;;;;;;;20.63;13.45;;;;;;;21.04;100.00;97361.94;5032263;28;20029;-73
2023/08/26 02:48:20;;;;;;;20.88;14.27;;;;;;;20.97;100.00;97361.75;5049512;28;20038;-73
2023/08/26 02:50:46;;;;;;;31.05;14.82;;;;;;;20.90;100.00;97366.13;5049838;28;20024;-73
2023/08/26 02:53:11;;;;;;;24.65;15.15;;;;;;;20.86;100.00;97363.88;5050638;28;20088;-73
2023/08/26 02:55:37;;;;;;;26.23;14.05;;;;;;;20.96;100.00;97375.50;5049299;28;20056;-73
2023/08/26 02:58:03;;;;;;;27.70;15.15;;;;;;;21.03;100.00;97363.81;5049437;28;20365;-73
2023/08/26 03:00:28;;;;;;;27.25;14.80;;;;;;;21.09;100.00;97365.03;5050591;28;20047;-73
2023/08/26 03:02:54;;;;;;;22.48;13.85;;;;;;;21.15;100.00;97368.97;5050658;28;20039;-74
2023/08/26 03:05:19;;;;;;;24.27;14.38;;;;;;;21.13;100.00;97371.00;5049354;28;20033;-74
2023/08/26 03:07:45;;;;;;;24.92;13.90;;;;;;;21.10;100.00;97368.63;5049138;28;20025;-73
2023/08/26 03:10:10;;;;;;;28.98;14.82;;;;;;;21.11;100.00;97373.03;5049160;28;20403;-73
2023/08/26 03:12:36;;;;;;;23.35;14.93;;;;;;;21.05;100.00;97369.94;5050400;28;20043;-73
2023/08/26 03:15:02;;;;;;;23.52;13.88;;;;;;;21.03;100.00;97371.13;5050444;28;20044;-74
2023/08/26 03:17:28;;;;;;;23.50;14.18;;;;;;;20.97;100.00;97369.91;5049104;28;20032;-74
2023/08/26 03:19:53;;;;;;;25.42;13.20;;;;;;;21.01;100.00;97373.16;5038160;28;20385;-74
2023/08/26 03:22:18;;;;;;;24.95;14.25;;;;;;;21.01;100.00;97371.25;5029274;28;20041;-73
2023/08/26 03:24:44;;;;;;;19.30;12.77;;;;;;;20.94;100.00;97375.69;5030230;28;20044;-73
2023/08/26 03:27:09;;;;;;;23.67;13.88;;;;;;;20.90;100.00;97373.44;5029008;28;20137;-73
2023/08/26 03:29:35;;;;;;;29.55;14.32;;;;;;;20.89;100.00;97375.28;5012491;28;20036;-73
2023/08/26 03:32:01;;;;;;;25.10;13.48;;;;;;;20.88;100.00;97379.06;5028888;28;20053;-73
2023/08/26 03:34:26;;;;;;;40.90;14.85;;;;;;;20.96;100.00;97381.78;5028992;28;20029;-73
2023/08/26 03:36:52;;;;;;;28.15;15.52;;;;;;;21.00;100.00;97383.19;5028741;28;20030;-72
2023/08/26 03:39:17;;;;;;;26.35;14.68;;;;;;;20.99;100.00;97386.03;5043928;28;20057;-73
2023/08/26 03:41:43;;;;;;;19.85;13.82;;;;;;;20.90;100.00;97377.00;5049757;28;20471;-73
2023/08/26 03:44:09;;;;;;;26.55;13.88;;;;;;;21.01;100.00;97387.59;5032100;28;20077;-72
2023/08/26 03:46:34;;;;;;;21.00;13.95;;;;;;;20.97;100.00;97388.94;5049703;28;20473;-73
2023/08/26 03:49:00;;;;;;;23.58;14.07;;;;;;;21.02;100.00;97392.00;5048700;28;20056;-73
2023/08/26 03:51:25;;;;;;;29.25;14.70;;;;;;;20.91;100.00;97399.63;5048532;28;20480;-72
2023/08/26 03:53:51;;;;;;;26.27;15.35;;;;;;;20.90;100.00;97392.47;5031734;28;20029;-72
2023/08/26 03:56:17;;;;;;;29.42;15.88;;;;;;;20.85;100.00;97397.56;5047769;28;20407;-73
2023/08/26 03:58:42;;;;;;;31.42;15.40;;;;;;;20.90;100.00;97406.06;5049578;28;20161;-73
2023/08/26 04:01:08;;;;;;;19.88;14.77;;;;;;;20.95;100.00;97412.72;5049713;28;20040;-74
2023/08/26 04:03:33;;;;;;;28.50;15.60;;;;;;;21.02;100.00;97407.47;5049856;28;20069;-73
2023/08/26 04:06:05;;;;;;;28.60;15.30;;;;;;;20.87;100.00;97409.97;5048149;28;20029;-74
2023/08/26 04:08:31;;;;;;;30.95;16.10;;;;;;;20.88;100.00;97414.41;5048344;28;20406;-73
2023/08/26 04:10:57;;;;;;;24.80;15.13;;;;;;;20.86;100.00;97413.69;5048031;28;20033;-74
2023/08/26 04:13:24;;;;;;;22.13;14.30;;;;;;;20.96;100.00;97409.00;5048278;28;20492;-73
2023/08/26 04:15:53;;;;;;;37.63;17.85;;;;;;;21.03;100.00;97417.34;5048171;28;20025;-73
2023/08/26 04:18:19;;;;;;;32.58;15.23;;;;;;;21.04;100.00;97414.47;5048199;28;20041;-73
2023/08/26 04:20:44;;;;;;;23.70;14.30;;;;;;;21.04;100.00;97419.91;5047889;28;20508;-74
2023/08/26 04:23:10;;;;;;;25.00;13.98;;;;;;;21.05;100.00;97416.16;5049013;28;20049;-73
2023/08/26 04:25:36;;;;;;;37.83;16.30;;;;;;;21.03;100.00;97418.22;5028238;28;20104;-74
2023/08/26 04:28:01;;;;;;;25.27;15.05;;;;;;;21.10;100.00;97418.44;5028051;28;20037;-74
2023/08/26 04:30:27;;;;;;;26.33;15.05;;;;;;;21.22;100.00;97424.44;5029328;28;20025;-74
2023/08/26 04:32:52;;;;;;;37.85;16.52;;;;;;;21.43;100.00;97424.84;5027895;28;20106;-75
2023/08/26 04:35:18;;;;;;;36.08;15.88;;;;;;;21.31;100.00;97424.31;5027934;28;20450;-74
2023/08/26 04:37:43;;;;;;;43.00;16.48;;;;;;;21.48;100.00;97430.63;5029298;28;20026;-74
2023/08/26 04:40:15;;;;;;;37.90;15.38;;;;;;;21.57;100.00;97427.78;5029346;28;20033;-75
2023/08/26 04:42:41;;;;;;;38.22;16.50;;;;;;;21.65;100.00;97426.97;5036078;28;20089;-73
2023/08/26 04:45:09;;;;;;;32.13;14.38;;;;;;;21.63;100.00;97423.53;5047706;28;20027;-74
2023/08/26 04:47:35;;;;;;;24.00;14.18;;;;;;;21.70;100.00;97429.16;5047605;28;20492;-75
2023/08/26 04:50:01;;;;;;;34.45;15.38;;;;;;;21.74;100.00;97427.81;5047445;28;20029;-75
2023/08/26 04:52:26;;;;;;;32.85;15.77;;;;;;;21.87;100.00;97426.28;5048875;28;20100;-75
2023/08/26 04:54:52;;;;;;;32.33;14.52;;;;;;;21.94;100.00;97415.63;5048730;28;20069;-75
2023/08/26 04:57:18;;;;;;;35.75;15.05;;;;;;;22.02;100.00;97426.53;5048827;28;20033;-75
2023/08/26 04:59:43;;;;;;;28.15;14.02;;;;;;;22.09;100.00;97420.22;5047468;28;20025;-74
2023/08/26 05:02:09;;;;;;;28.90;15.05;;;;;;;22.26;100.00;97425.69;5047294;28;20029;-74
2023/08/26 05:04:36;;;;;;;23.77;13.57;;;;;;;22.39;100.00;97424.16;5047311;28;20025;-74
2023/08/26 05:07:03;;;;;;;24.08;14.38;;;;;;;22.48;100.00;97420.41;5047058;28;20423;-74
2023/08/26 05:09:28;;;;;;;20.33;13.70;;;;;;;22.54;100.00;97427.03;5046176;28;20031;-75
2023/08/26 05:11:57;;;;;;;26.00;13.80;;;;;;;22.61;100.00;97420.69;5047209;28;20025;-75
2023/08/26 05:14:23;;;;;;;29.08;14.60;;;;;;;22.68;100.00;97410.00;5047232;28;20541;-75
2023/08/26 05:16:48;;;;;;;28.83;14.40;;;;;;;22.84;100.00;97415.41;5048535;28;20097;-75
2023/08/26 05:19:14;;;;;;;34.90;14.15;;;;;;;22.96;100.00;97413.16;5046880;28;20017;-74
2023/08/26 05:21:39;;;;;;;22.73;13.27;;;;;;;23.02;100.00;97410.56;5047060;28;20033;-75
2023/08/26 05:24:05;;;;;;;23.63;14.32;;;;;;;23.07;100.00;97408.16;5047062;28;20037;-75
2023/08/26 05:26:31;;;;;;;23.58;14.75;;;;;;;23.21;100.00;97407.44;5047005;28;20033;-75
2023/08/26 05:28:56;;;;;;;33.15;15.70;;;;;;;23.41;100.00;97401.59;5047454;28;20532;-75
2023/08/26 05:31:22;;;;;;;24.50;13.93;;;;;;;23.67;100.00;97404.84;5046802;28;20045;-75
2023/08/26 05:33:47;;;;;;;28.00;14.93;;;;;;;23.91;100.00;97401.94;5046745;28;20021;-74
2023/08/26 05:36:13;;;;;;;25.20;13.90;;;;;;;24.17;100.00;97397.00;5046611;28;20471;-75
2023/08/26 05:38:38;;;;;;;57.38;18.23;;;;;;;24.48;100.00;97393.31;5046920;28;20033;-76
2023/08/26 05:41:04;;;;;;;45.90;26.30;;;;;;;25.07;100.00;97394.25;5021574;28;20044;-86
2023/08/26 05:43:30;;;;;;;38.97;15.93;;;;;;;25.94;100.00;97395.13;5044566;28;20036;-75
2023/08/26 05:45:58;;;;;;;22.27;12.90;;;;;;;27.20;100.00;97394.09;5044079;28;20468;-74
2023/08/26 05:48:24;;;;;;;22.95;14.55;;;;;;;27.82;100.00;97387.63;5041743;28;20037;-82
2023/08/26 05:50:49;;;;;;;26.60;15.35;;;;;;;28.26;100.00;97385.22;5043942;28;20433;-75
2023/08/26 05:53:15;;;;;;;24.00;15.25;;;;;;;28.80;100.00;97375.94;5043690;28;20397;-72
2023/08/26 05:55:41;;;;;;;27.85;17.35;;;;;;;29.25;100.00;97379.69;5042942;28;20025;-74
2023/08/26 05:58:07;;;;;;;40.85;17.33;;;;;;;29.78;100.00;97372.88;5036138;28;20115;-74
2023/08/26 06:00:34;;;;;;;35.20;21.17;;;;;;;30.85;100.00;97361.78;5026414;28;20460;-82
2023/08/26 06:03:00;;;;;;;50.72;20.58;;;;;;;31.80;96.40;97364.97;5043722;28;20037;-78
2023/08/26 06:05:25;;;;;;;30.60;17.15;;;;;;;32.06;91.26;97365.47;5040161;28;20135;-74
2023/08/26 06:07:51;;;;;;;39.45;18.33;;;;;;;32.41;90.43;97373.06;5038782;28;20054;-75
2023/08/26 06:10:17;;;;;;;32.38;14.55;;;;;;;32.84;85.32;97368.09;5034799;28;20025;-83
2023/08/26 06:12:43;;;;;;;18.65;12.65;;;;;;;32.24;86.59;97366.53;5042641;28;20037;-78
2023/08/26 06:15:09;;;;;;;17.40;12.13;;;;;;;32.09;89.59;97380.78;5035645;28;20039;-75
2023/08/26 06:17:35;;;;;;;18.75;12.73;;;;;;;32.16;88.07;97374.06;5025298;28;20029;-75
2023/08/26 06:20:03;;;;;;;17.13;12.70;;;;;;;31.55;93.09;97384.44;5031088;28;20022;-78
2023/08/26 06:22:29;;;;;;;23.90;13.05;;;;;;;31.64;92.26;97378.38;5037806;28;20064;-73
2023/08/26 06:24:55;;;;;;;21.60;12.55;;;;;;;32.04;90.44;97377.88;5044130;28;20100;-74
2023/08/26 06:27:20;;;;;;;18.13;11.85;;;;;;;32.72;84.69;97376.41;5043186;28;20041;-75
2023/08/26 06:29:53;;;;;;;29.13;12.50;;;;;;;33.16;84.31;97376.94;5043614;28;20032;-73
2023/08/26 06:32:19;;;;;;;16.65;12.38;;;;;;;33.82;76.63;97368.13;5028439;28;20439;-74
2023/08/26 06:34:45;;;;;;;22.23;11.60;;;;;;;33.36;77.87;97382.09;5023532;28;20090;-74
2023/08/26 06:37:11;;;;;;;22.20;12.82;;;;;;;32.89;81.40;97372.91;5026941;28;20442;-75
2023/08/26 06:39:36;;;;;;;20.00;10.88;;;;;;;33.09;80.80;97381.75;5030666;28;20491;-74
2023/08/26 06:42:02;;;;;;;20.77;11.55;;;;;;;34.39;71.66;97379.28;5033707;28;20024;-74
2023/08/26 06:44:27;;;;;;;25.73;12.30;;;;;;;35.14;65.87;97374.19;5024761;28;20094;-74
2023/08/26 06:46:53;;;;;;;21.48;11.35;;;;;;;35.96;60.96;97382.59;5045489;28;20077;-74
2023/08/26 06:49:18;;;;;;;21.08;12.10;;;;;;;36.39;58.61;97372.25;5029293;28;20400;-74
2023/08/26 06:51:44;;;;;;;18.67;11.43;;;;;;;36.36;58.07;97367.19;5045839;28;20036;-74
2023/08/26 06:54:09;;;;;;;20.95;12.30;;;;;;;36.61;56.62;97369.41;5046885;28;20100;-75
2023/08/26 06:56:35;;;;;;;18.98;12.40;;;;;;;36.71;55.24;97375.09;5045701;28;20031;-74
2023/08/26 06:59:02;;;;;;;19.17;11.95;;;;;;;36.59;55.80;97377.22;5045691;28;20090;-74
2023/08/26 07:01:28;;;;;;;38.97;25.38;;;;;;;36.97;54.82;97378.09;5045756;28;20025;-74
2023/08/26 07:04:02;;;;;;;17.88;13.50;;;;;;;36.97;52.87;97361.34;5029933;28;20507;-73
2023/08/26 07:06:28;;;;;;;17.45;12.10;;;;;;;37.08;52.85;97363.97;5042185;28;20025;-73
2023/08/26 07:08:54;;;;;;;19.48;12.20;;;;;;;37.63;50.43;97365.47;5045720;27;20700;-74
2023/08/26 07:11:19;;;;;;;17.90;12.32;;;;;;;37.63;50.09;97363.50;5042583;28;20033;-74
2023/08/26 07:13:45;;;;;;;24.90;11.60;;;;;;;38.25;48.59;97368.25;5035053;28;20373;-73
2023/08/26 07:16:10;;;;;;;17.05;11.95;;;;;;;38.18;47.73;97357.31;5009055;28;20093;-74
2023/08/26 07:18:36;;;;;;;13.85;11.00;;;;;;;38.31;48.08;97361.53;5025563;28;20066;-74
2023/08/26 07:21:01;;;;;;;20.77;11.57;;;;;;;38.42;46.40;97352.91;5042109;28;20037;-74
2023/08/26 07:23:27;;;;;;;18.60;11.80;;;;;;;37.99;47.89;97358.97;5045405;28;20024;-74
2023/08/26 07:25:52;;;;;;;25.02;10.82;;;;;;;38.51;46.48;97350.44;5028492;28;20413;-75
2023/08/26 07:28:18;;;;;;;16.98;11.23;;;;;;;38.81;44.75;97339.28;5045300;28;20102;-74
2023/08/26 07:30:43;;;;;;;20.30;10.50;;;;;;;38.78;45.02;97338.97;5046278;28;20104;-75
2023/08/26 07:33:09;;;;;;;13.27;10.90;;;;;;;39.02;44.09;97346.56;5048551;28;20044;-75
2023/08/26 07:35:34;;;;;;;52.90;12.45;;;;;;;39.34;43.55;97342.63;5033714;28;20033;-74
2023/08/26 07:38:00;;;;;;;16.05;10.77;;;;;;;38.52;44.07;97334.50;5024804;28;20122;-75
2023/08/26 07:40:26;;;;;;;21.23;11.27;;;;;;;39.27;43.17;97342.91;5012320;28;20464;-74
2023/08/26 07:42:51;;;;;;;21.50;11.40;;;;;;;40.89;40.65;97340.16;5026404;28;20037;-75
2023/08/26 07:45:17;;;;;;;30.23;11.98;;;;;;;41.04;40.10;97337.22;5048562;28;20044;-75
2023/08/26 07:47:43;;;;;;;14.30;10.73;;;;;;;41.31;40.28;97338.66;5035548;28;20082;-75
2023/08/26 07:50:09;;;;;;;24.98;12.20;;;;;;;41.90;38.59;97336.31;5020724;28;20112;-75
2023/08/26 07:52:35;;;;;;;22.63;12.07;;;;;;;42.33;37.71;97330.72;5028857;28;20108;-75
2023/08/26 07:55:01;;;;;;;37.80;11.73;;;;;;;41.41;38.13;97327.38;5028461;28;20454;-75
2023/08/26 07:57:26;;;;;;;29.08;12.40;;;;;;;40.69;39.62;97331.91;5028495;28;20025;-74
2023/08/26 07:59:52;;;;;;;26.67;12.00;;;;;;;41.08;38.53;97323.44;5038120;28;20033;-76
2023/08/26 08:02:18;;;;;;;24.23;12.40;;;;;;;41.15;38.71;97329.56;5035319;28;20029;-75
2023/08/26 08:04:44;;;;;;;14.05;10.05;;;;;;;40.58;37.81;97319.06;5028534;28;20044;-76
2023/08/26 08:07:09;;;;;;;12.85;9.82;;;;;;;39.87;39.75;97327.06;5045775;28;20017;-73
2023/08/26 08:09:35;;;;;;;14.15;10.32;;;;;;;40.26;38.88;97318.72;5048274;28;20399;-73
2023/08/26 08:12:00;;;;;;;15.15;9.82;;;;;;;41.53;37.57;97313.72;5048015;28;20468;-73
2023/08/26 08:14:26;;;;;;;13.15;10.40;;;;;;;41.07;37.93;97310.56;5047951;28;20024;-73
2023/08/26 08:16:52;;;;;;;15.52;10.05;;;;;;;41.84;36.77;97312.22;5049201;28;20021;-74
2023/08/26 08:19:17;;;;;;;17.92;10.05;;;;;;;41.57;37.02;97306.34;5043653;28;20041;-74
2023/08/26 08:21:43;;;;;;;11.68;9.55;;;;;;;41.68;36.31;97302.31;5028218;28;20021;-74
2023/08/26 08:24:08;;;;;;;22.52;9.75;;;;;;;40.95;38.67;97302.50;5011727;28;20046;-74
2023/08/26 08:26:35;;;;;;;18.58;9.95;;;;;;;42.69;35.93;97298.09;5032106;28;20025;-74
2023/08/26 08:29:01;;;;;;;17.05;9.88;;;;;;;43.51;36.32;97301.97;5033809;28;20033;-74
2023/08/26 08:31:27;;;;;;;17.15;9.35;;;;;;;43.54;34.28;97298.53;5048877;28;20044;-74
2023/08/26 08:33:52;;;;;;;19.33;9.32;;;;;;;42.81;35.25;97295.63;5047831;28;20099;-75
2023/08/26 08:36:18;;;;;;;12.68;9.60;;;;;;;43.93;34.19;97297.19;5049068;28;20154;-74
2023/08/26 08:38:43;;;;;;;24.60;9.35;;;;;;;43.93;34.26;97295.22;5011723;28;20021;-74
2023/08/26 08:41:09;;;;;;;12.68;9.07;;;;;;;43.22;34.12;97281.66;5038913;28;20064;-74
2023/08/26 08:43:37;;;;;;;12.23;9.23;;;;;;;43.42;34.47;97286.09;5047486;28;20124;-74
2023/08/26 08:46:02;;;;;;;21.23;10.20;;;;;;;44.52;34.25;97298.91;5037043;28;20040;-75
2023/08/26 08:48:28;;;;;;;14.23;9.05;;;;;;;44.16;32.63;97285.66;5027770;28;20030;-76
2023/08/26 08:50:55;;;;;;;19.92;8.60;;;;;;;43.02;34.30;97284.84;5027719;28;20029;-76
2023/08/26 08:53:26;;;;;;;18.30;9.48;;;;;;;42.80;35.60;97282.69;5027795;28;20112;-75
2023/08/26 08:55:52;;;;;;;12.88;8.73;;;;;;;43.14;33.99;97283.22;5027784;28;20556;-75
2023/08/26 08:58:18;;;;;;;13.32;8.27;;;;;;;43.42;33.44;97277.63;5027655;28;20104;-75
2023/08/26 09:00:43;;;;;;;12.07;9.27;;;;;;;43.49;32.95;97278.91;5027629;28;20485;-76
2023/08/26 09:03:09;;;;;;;16.75;9.85;;;;;;;44.34;32.09;97281.00;5027507;28;20086;-75
2023/08/26 09:05:36;;;;;;;14.10;8.80;;;;;;;44.34;31.11;97271.69;5010999;28;20499;-75
2023/08/26 09:08:02;;;;;;;14.25;8.55;;;;;;;44.24;31.56;97269.94;5027326;28;20027;-76
2023/08/26 09:10:28;;;;;;;21.67;9.02;;;;;;;45.04;30.84;97264.28;5040055;28;20036;-76
2023/08/26 09:12:53;;;;;;;11.43;8.52;;;;;;;44.32;31.11;97268.38;5047481;28;20036;-76
2023/08/26 09:15:19;;;;;;;17.17;9.13;;;;;;;44.89;30.80;97256.19;5030587;28;20119;-76
2023/08/26 09:17:48;;;;;;;11.90;7.97;;;;;;;46.11;29.39;97254.47;5048354;28;20055;-77
2023/08/26 09:20:13;;;;;;;10.02;8.40;;;;;;;46.87;28.44;97251.13;5047309;28;20028;-77
2023/08/26 09:22:39;;;;;;;12.10;8.52;;;;;;;46.31;28.78;97248.13;5047200;28;20037;-77
2023/08/26 09:25:05;;;;;;;13.48;8.85;;;;;;;47.19;28.15;97247.75;5030588;28;20039;-77
2023/08/26 09:27:40;;;;;;;14.40;8.77;;;;;;;47.18;28.06;97246.09;5047421;28;20017;-77
2023/08/26 09:30:06;;;;;;;24.40;8.80;;;;;;;47.35;28.57;97241.19;5027860;28;20029;-77
2023/08/26 09:32:39;;;;;;;18.30;9.23;;;;;;;47.07;28.25;97242.75;5042638;28;20448;-77
2023/08/26 09:35:12;;;;;;;22.58;8.68;;;;;;;46.99;27.73;97239.94;5044038;28;20027;-76
2023/08/26 09:37:38;;;;;;;14.07;8.98;;;;;;;45.69;28.98;97241.00;5046892;28;20033;-75
2023/08/26 09:40:04;;;;;;;14.57;8.65;;;;;;;43.85;30.66;97235.88;5046686;28;20084;-75
2023/08/26 09:42:30;;;;;;;21.63;8.65;;;;;;;46.11;28.17;97234.66;5032182;28;20041;-74
2023/08/26 09:44:56;;;;;;;10.65;8.10;;;;;;;46.81;27.44;97233.50;5010690;28;20029;-75
2023/08/26 09:47:23;;;;;;;9.75;8.23;;;;;;;46.79;27.28;97230.97;5026753;28;20038;-75
2023/08/26 09:49:49;;;;;;;21.08;9.00;;;;;;;46.85;27.21;97223.16;5027022;28;20028;-76
2023/08/26 09:52:15;;;;;;;9.02;7.75;;;;;;;48.15;25.76;97216.53;5010251;28;20029;-75
2023/08/26 09:54:43;;;;;;;34.97;8.32;;;;;;;48.84;25.32;97222.50;5009710;28;20025;-75
2023/08/26 09:57:08;;;;;;;9.25;8.18;;;;;;;48.73;25.18;97206.25;5010647;28;20036;-75
2023/08/26 09:59:34;;;;;;;22.95;8.52;;;;;;;47.98;25.93;97208.16;5046700;28;20468;-76
2023/08/26 10:02:03;;;;;;;10.23;8.07;;;;;;;48.92;25.56;97202.84;5039401;28;20060;-76
2023/08/26 10:04:32;;;;;;;19.23;8.40;;;;;;;49.83;24.16;97205.25;5010021;28;20444;-76
2023/08/26 10:06:59;;;;;;;9.18;8.18;;;;;;;49.99;24.27;97199.69;5026619;28;20496;-76
2023/08/26 10:09:50;;;;;;;14.32;8.05;;;;;;;49.95;24.12;97199.53;5026460;28;20053;-76
2023/08/26 10:12:22;;;;;;;12.07;7.38;;;;;;;49.20;24.73;97196.16;5027377;28;20021;-77
2023/08/26 10:14:51;;;;;;;8.75;7.88;;;;;;;49.19;25.09;97186.00;5046482;28;20032;-77
2023/08/26 10:17:20;;;;;;;10.52;8.30;;;;;;;48.09;26.13;97186.69;5037281;28;20100;-74
2023/08/26 10:19:46;;;;;;;11.48;8.32;;;;;;;46.21;27.37;97172.03;5039650;28;20013;-74
2023/08/26 10:22:12;;;;;;;10.10;8.15;;;;;;;46.48;27.27;97178.53;5046159;28;20488;-76
2023/08/26 10:24:38;;;;;;;13.23;8.05;;;;;;;47.68;26.21;97172.47;5046242;28;20104;-74
2023/08/26 10:27:05;;;;;;;12.43;7.82;;;;;;;48.17;25.71;97180.13;5014610;28;20434;-74
2023/08/26 10:29:31;;;;;;;9.43;7.82;;;;;;;47.22;26.23;97174.22;5026263;28;20035;-73
2023/08/26 10:31:57;;;;;;;16.23;8.30;;;;;;;47.67;26.34;97179.31;5026284;28;20118;-73
2023/08/26 10:34:30;;;;;;;13.60;7.63;;;;;;;48.22;25.23;97174.28;5026151;28;20120;-75
2023/08/26 10:36:56;;;;;;;16.35;8.32;;;;;;;47.59;25.13;97168.88;5026458;28;20056;-74
2023/08/26 10:39:21;;;;;;;14.60;7.65;;;;;;;48.10;25.23;97170.50;5026041;28;20061;-75
2023/08/26 10:42:13;;;;;;;12.68;7.32;;;;;;;47.37;25.68;97174.78;5026489;28;20025;-74
2023/08/26 10:44:40;;;;;;;12.95;8.65;;;;;;;47.98;25.37;97159.91;5009487;28;20048;-74
2023/08/26 10:47:06;;;;;;;16.50;7.47;;;;;;;48.13;25.14;97167.81;5026321;28;20113;-75
2023/08/26 10:49:31;;;;;;;10.90;7.10;;;;;;;49.54;24.28;97168.47;5026141;28;20029;-74
2023/08/26 10:52:16;;;;;;;14.95;8.55;;;;;;;48.67;24.83;97157.28;5010001;28;20407;-74
2023/08/26 10:54:43;;;;;;;15.52;8.30;;;;;;;49.43;24.40;97156.75;5025888;28;20060;-74
2023/08/26 10:57:09;;;;;;;40.85;9.48;;;;;;;48.92;24.86;97149.66;5026110;28;20036;-73
2023/08/26 10:59:35;;;;;;;12.10;7.22;;;;;;;49.42;23.96;97147.38;5009000;28;20037;-74
2023/08/26 11:02:03;;;;;;;12.00;7.70;;;;;;;48.88;24.63;97149.56;5026218;28;20028;-74
2023/08/26 11:04:28;;;;;;;9.00;7.60;;;;;;;46.87;25.42;97146.31;5026142;28;20444;-74
2023/08/26 11:06:54;;;;;;;16.02;7.18;;;;;;;46.91;25.60;97139.63;5010671;28;20025;-74
2023/08/26 11:09:20;;;;;;;11.13;7.15;;;;;;;48.21;24.34;97137.69;5030659;28;20158;-74
2023/08/26 11:11:46;;;;;;;11.75;7.22;;;;;;;48.63;23.71;97129.97;5029233;28;20033;-76